Exton, Pennsylvania
Current Conditions -  °F | °C
As of 10:55 AM on Friday 28 Nov 2014 (Local Time) from KMQS Reporting Station
Broken Clouds Broken Clouds  
Wind Chill: 23°   Ceiling: 4600
Heat Index: 32°   Visibility: 10mi
Dew Point: 16°   Wind: 13mph
Humidity: 51%   Direction: 320°NW
Pressure: 30.23"   Gusts: 24mph
Location:  40.03°N, 75.62°W
Report Text: KMQS 281555Z AUTO 32011G21KT 10SM BKN046 BKN055 00/M09 A3023 RMK AO2
Loading
Personal Weather Stations






























Interactive Weather Map New forecast layout! Learn more

10-Day Weather Forecast

Advertisements
Track Severe Weather on mobile